• Join FlightAware (Why Join?)
  • Login
  • US Flag 
08:34AM EDT


 

Airport Tracker/Info


-or-


 

Live Flight TrackerFlight Track Log ✈ N225SB ✈ 12-Nov-2013 ✈ KBTV - KROC

Flight Track Log - Related Links

Times and Time Zones

All times are in EST time to prevent confusion due to time zone crossing. See the N225SB flight status page for this flight to view local times or setup timezone preferences in your user account.

Time Position Orientation Groundspeed Altitude Reporting Facility
EST Latitude Longitude Course Direction KTS MPH feet Rate Location/Type
09:07AM 44.5036 -73.2042 251° West 174 200 3,900  Level Boston Center
09:08AM 44.4847 -73.2819 251° West 223 257 7,900 3,660 Climbing Boston Center
09:09AM 44.4519 -73.3664 241° Southwest 249 287 11,300 3,540 Climbing Boston Center
09:10AM 44.4053 -73.4769 239° Southwest 306 352 15,000 3,360 Climbing Boston Center
09:11AM 44.3583 -73.5867 239° Southwest 328 377 18,200 2,940 Climbing Boston Center
09:12AM 44.3181 -73.6792 239° Southwest 327 376 21,000 1,800 Climbing Boston Center
09:13AM 44.2619 -73.8047 238° Southwest 321 369 22,000 480 Climbing Boston Center
09:14AM 44.2133 -73.9153 239° Southwest 329 379 22,000  Level Boston Center
09:15AM 44.1658 -74.0244 239° Southwest 331 381 22,000  Level Boston Center
09:16AM 44.1164 -74.1336 238° Southwest 332 382 22,000  Level Boston Center
09:17AM 44.0683 -74.2425 238° Southwest 332 382 22,000  Level Boston Center
09:18AM 44.0192 -74.3539 238° Southwest 337 388 22,000  Level Boston Center
09:19AM 43.9703 -74.4619 238° Southwest 333 383 22,000  Level Boston Center
09:20AM 43.9244 -74.5725 240° Southwest 331 381 22,000  Level Boston Center
09:21AM 43.8967 -74.6953 253° West 332 382 22,000  Level Boston Center
09:22AM 43.8661 -74.8197 251° West 340 391 22,000  Level Boston Center
09:23AM 43.8358 -74.9425 251° West 339 390 22,000  Level Boston Center
09:24AM 43.8058 -75.0650 251° West 338 389 22,000  Level Boston Center
09:25AM 43.7694 -75.2094 251° West 335 386 22,000  Level Boston Center
09:26AM 43.7386 -75.3317 251° West 337 388 22,000  Level Boston Center
09:27AM 43.7072 -75.4558 251° West 344 396 22,000  Level Boston Center
09:28AM 43.6753 -75.5808 251° West 348 400 22,000  Level Boston Center
09:29AM 43.6433 -75.7031 250° West 343 395 22,000  Level Boston Center
09:30AM 43.6117 -75.8264 251° West 344 396 22,000  Level Boston Center
09:31AM 43.5800 -75.9492 250° West 342 394 22,000  Level Boston Center
09:32AM 43.5478 -76.0733 250° West 346 398 22,000  Level Boston Center
09:33AM 43.5142 -76.2003 250° West 352 405 22,000  Level Boston Center
09:34AM 43.4817 -76.3261 250° West 351 404 22,000 -360 Level Boston Center
09:35AM 43.4425 -76.4750 250° West 347 399 21,300 -1,260 Descending Boston Center
09:36AM 43.4092 -76.6003 250° West 349 402 19,500 -1,680 Descending Boston Center
09:37AM 43.3758 -76.7244 250° West 359 413 17,900 -1,620 Descending Boston Center
09:38AM 43.3608 -76.7783 249° West 357 411 17,100 -2,100 Descending Cleveland Center
09:38AM 43.3372 -76.8656 250° West 352 405 15,600 -2,040 Descending Cleveland Center
09:39AM 43.3278 -76.9058 252° West 355 409 15,000 -2,280 Descending Cleveland Center
09:40AM 43.2981 -77.0153 250° West 360 414 13,100 -2,640 Descending Cleveland Center
09:40AM 43.2867 -77.0586 250° West 356 410 12,300 -2,580 Descending Cleveland Center
09:41AM 43.2644 -77.1372 249° West 334 384 10,500 -2,460 Descending Cleveland Center
09:41AM 43.2556 -77.1719 251° West 343 395 9,800 -2,220 Descending Cleveland Center
09:42AM 43.2211 -77.2508 239° Southwest 291 335 8,100 -1,980 Descending Cleveland Center
09:42AM 43.2119 -77.2644 227° Southwest 316 364 7,800 -1,980 Descending Cleveland Center
09:43AM 43.1686 -77.3242 225° Southwest 262 302 6,100 -2,160 Descending Cleveland Center
09:43AM 43.1586 -77.3358 220° Southwest 277 319 5,600 -2,580 Descending Cleveland Center
09:44AM 43.1294 -77.4067 241° Southwest 249 287 3,500 -2,460 Descending Cleveland Center
09:44AM 43.1294 -77.4206 270° West 255 293 3,100 -1,020 Descending Cleveland Center
09:45AM 43.1258 -77.4925 266° West 201 231 2,500 -540 Descending Cleveland Center
09:45AM 43.1272 -77.5175 274° West 221 254 2,600 -420 Climbing Cleveland Center
09:46AM 43.1258 -77.5533 267° West 141 162 2,100 -600 Descending Cleveland Center
09:46AM 43.1261 -77.5717 271° West 180 207 2,000 -720 Descending Cleveland Center
09:47AM 43.1253 -77.6025 268° West 124 143 1,400 -720 Descending Cleveland Center
09:47AM 43.1244 -77.6183 266° West 149 171 1,300 -780 Descending Cleveland Center
09:48AM 43.1236 -77.6428 267° West 105 121 700 -720 Descending Cleveland Center
09:48AM 43.1231 -77.6594 267° West 128 147 600 -240 Descending Cleveland Center